createdAt,value
2018-01-26T00:02:00.918Z,12.88
2018-01-26T00:04:29.309Z,11.30
2018-01-26T00:06:56.934Z,14.00
2018-01-26T00:09:24.564Z,12.95
2018-01-26T00:11:52.189Z,9.90
2018-01-26T00:14:19.776Z,11.60
2018-01-26T00:16:48.359Z,11.07
2018-01-26T00:19:16.003Z,11.93
2018-01-26T00:21:43.593Z,10.88
2018-01-26T00:24:11.277Z,12.68
2018-01-26T00:26:38.897Z,28.17
2018-01-26T00:29:06.515Z,24.95
2018-01-26T00:31:34.207Z,24.17
2018-01-26T00:34:01.917Z,21.75
2018-01-26T00:36:29.564Z,22.02
2018-01-26T00:38:57.167Z,19.20
2018-01-26T00:41:25.580Z,23.35
2018-01-26T00:43:53.143Z,20.85
2018-01-26T00:46:20.760Z,25.65
2018-01-26T00:48:48.351Z,22.85
2018-01-26T00:51:15.939Z,20.98
2018-01-26T00:53:43.556Z,19.17
2018-01-26T00:56:11.938Z,18.95
2018-01-26T00:58:40.327Z,20.52
2018-01-26T01:01:07.966Z,18.05
2018-01-26T01:03:35.599Z,19.73
2018-01-26T01:06:03.247Z,17.75
2018-01-26T01:08:30.856Z,16.62
2018-01-26T01:10:58.442Z,14.87
2018-01-26T01:13:26.035Z,19.00
2018-01-26T01:15:53.623Z,13.05
2018-01-26T01:18:21.200Z,11.15
2018-01-26T01:20:49.564Z,10.50
2018-01-26T01:23:17.225Z,8.52
2018-01-26T01:25:45.559Z,11.50
2018-01-26T01:28:13.152Z,13.38
2018-01-26T01:30:40.779Z,11.40
2018-01-26T01:33:08.438Z,12.98
2018-01-26T01:35:36.026Z,12.48
2018-01-26T01:38:03.678Z,11.02
2018-01-26T01:40:31.270Z,14.25
2018-01-26T01:42:59.643Z,18.62
2018-01-26T01:45:27.271Z,14.05
2018-01-26T01:47:54.825Z,13.75
2018-01-26T01:50:22.439Z,12.85
2018-01-26T01:52:50.819Z,13.05
2018-01-26T01:55:19.179Z,15.55
2018-01-26T01:57:46.849Z,12.88
2018-01-26T02:00:15.234Z,11.40
2018-01-26T02:02:42.835Z,12.93
2018-01-26T02:05:10.437Z,13.48
2018-01-26T02:07:38.082Z,10.10
2018-01-26T02:10:05.704Z,9.43
2018-01-26T02:12:33.314Z,9.13
2018-01-26T02:15:00.910Z,10.93
2018-01-26T02:17:28.575Z,10.05
2018-01-26T02:19:56.168Z,8.43
2018-01-26T02:22:23.754Z,6.87
2018-01-26T02:24:51.333Z,8.27
2018-01-26T02:27:19.724Z,7.75
2018-01-26T02:29:48.130Z,6.93
2018-01-26T02:32:15.778Z,7.95
2018-01-26T02:34:43.431Z,8.27
2018-01-26T02:37:11.772Z,8.85
2018-01-26T02:39:43.935Z,10.40
2018-01-26T02:42:11.584Z,14.02
2018-01-26T02:44:39.164Z,10.40
2018-01-26T02:47:06.739Z,12.20
2018-01-26T02:49:35.118Z,8.45
2018-01-26T02:52:03.495Z,6.70
2018-01-26T02:54:31.871Z,9.90
2018-01-26T02:57:00.275Z,7.95
2018-01-26T02:59:27.903Z,8.75
2018-01-26T03:01:55.500Z,8.70
2018-01-26T03:04:23.107Z,9.15
2018-01-26T03:06:50.691Z,9.18
2018-01-26T03:09:18.267Z,9.63
2018-01-26T03:11:46.646Z,9.98
2018-01-26T03:14:14.975Z,8.70
2018-01-26T03:16:42.560Z,9.82
2018-01-26T03:19:10.159Z,9.53
2018-01-26T03:21:37.783Z,7.75
2018-01-26T03:24:05.423Z,11.20
2018-01-26T03:26:33.002Z,9.07
2018-01-26T03:29:01.444Z,8.52
2018-01-26T03:31:29.006Z,9.95
2018-01-26T03:33:56.642Z,11.27
2018-01-26T03:36:24.275Z,9.43
2018-01-26T03:38:52.650Z,8.70
2018-01-26T03:41:21.007Z,9.25
2018-01-26T03:43:49.450Z,11.15
2018-01-26T03:46:17.084Z,9.55
2018-01-26T03:48:45.474Z,11.32
2018-01-26T03:51:13.123Z,7.20
2018-01-26T03:53:41.500Z,9.20
2018-01-26T03:56:09.107Z,9.90
2018-01-26T03:58:36.743Z,12.77
2018-01-26T04:01:04.361Z,7.35
2018-01-26T04:03:31.986Z,9.73
2018-01-26T04:05:59.618Z,9.55
2018-01-26T04:08:27.256Z,12.18
2018-01-26T04:10:54.878Z,12.00
2018-01-26T04:13:22.475Z,11.85
2018-01-26T04:15:50.850Z,8.68
2018-01-26T04:18:19.235Z,10.98
2018-01-26T04:20:47.597Z,11.68
2018-01-26T04:23:15.176Z,10.05
2018-01-26T04:25:43.599Z,12.48
2018-01-26T04:28:11.180Z,12.15
2018-01-26T04:30:38.738Z,10.40
2018-01-26T04:33:06.351Z,8.68
2018-01-26T04:35:33.994Z,10.30
2018-01-26T04:38:02.380Z,8.40
2018-01-26T04:40:30.799Z,10.10
2018-01-26T04:42:58.402Z,8.60
2018-01-26T04:45:26.778Z,12.30
2018-01-26T04:47:55.159Z,8.73
2018-01-26T04:50:23.523Z,7.90
2018-01-26T04:52:51.160Z,9.48
2018-01-26T04:55:18.770Z,7.32
2018-01-26T04:57:47.123Z,9.77
2018-01-26T05:00:14.773Z,9.68
2018-01-26T05:02:42.343Z,11.10
2018-01-26T05:05:09.955Z,7.83
2018-01-26T05:07:37.517Z,10.68
2018-01-26T05:10:05.143Z,13.10
2018-01-26T05:12:33.551Z,10.98
2018-01-26T05:15:01.146Z,12.90
2018-01-26T05:17:28.711Z,16.90
2018-01-26T05:19:56.330Z,12.85
2018-01-26T05:22:25.437Z,12.43
2018-01-26T05:24:53.015Z,12.68
2018-01-26T05:27:20.631Z,14.40
2018-01-26T05:29:48.984Z,12.15
2018-01-26T05:32:16.574Z,17.10
2018-01-26T05:34:44.175Z,14.77
2018-01-26T05:37:11.791Z,15.35
2018-01-26T05:39:39.371Z,16.17
2018-01-26T05:42:06.935Z,15.02
2018-01-26T05:44:34.555Z,11.32
2018-01-26T05:47:02.922Z,12.23
2018-01-26T05:49:30.551Z,10.85
2018-01-26T05:51:58.108Z,14.05
2018-01-26T05:54:25.713Z,14.23
2018-01-26T05:56:54.063Z,15.55
2018-01-26T05:59:21.674Z,13.98
2018-01-26T06:01:49.255Z,16.45
2018-01-26T06:04:17.605Z,15.38
2018-01-26T06:06:45.983Z,16.87
2018-01-26T06:09:14.343Z,13.85
2018-01-26T06:11:42.705Z,12.63
2018-01-26T06:14:10.296Z,12.40
2018-01-26T06:16:37.931Z,10.05
2018-01-26T06:19:05.532Z,11.82
2018-01-26T06:21:33.147Z,8.23
2018-01-26T06:24:00.789Z,9.65
2018-01-26T06:26:28.345Z,10.40
2018-01-26T06:28:55.971Z,11.70
2018-01-26T06:31:23.561Z,9.25
2018-01-26T06:33:51.130Z,10.02
2018-01-26T06:36:18.701Z,12.43
2018-01-26T06:38:46.285Z,12.43
2018-01-26T06:41:14.634Z,16.60
2018-01-26T06:43:42.251Z,14.93
2018-01-26T06:46:09.870Z,13.40
2018-01-26T06:48:37.447Z,14.48
2018-01-26T06:51:05.826Z,13.27
2018-01-26T06:53:33.440Z,14.43
2018-01-26T06:56:00.994Z,15.15
2018-01-26T06:58:28.602Z,13.75
2018-01-26T07:00:56.146Z,13.10
2018-01-26T07:03:23.758Z,12.20
2018-01-26T07:05:51.331Z,14.63
2018-01-26T07:08:18.956Z,12.82
2018-01-26T07:10:47.291Z,16.52
2018-01-26T07:13:14.899Z,15.23
2018-01-26T07:15:42.494Z,10.65
2018-01-26T07:18:10.127Z,15.50
2018-01-26T07:20:37.737Z,13.52
2018-01-26T07:23:05.339Z,14.30
2018-01-26T07:25:32.985Z,15.55
2018-01-26T07:28:00.554Z,12.05
2018-01-26T07:30:28.960Z,11.60
2018-01-26T07:32:56.573Z,13.05
2018-01-26T07:35:24.167Z,12.32
2018-01-26T07:37:51.739Z,13.00
2018-01-26T07:40:19.345Z,14.27
2018-01-26T07:42:46.983Z,18.08
2018-01-26T07:45:14.612Z,22.50
2018-01-26T07:47:42.228Z,21.77
2018-01-26T07:50:09.850Z,17.45
2018-01-26T07:52:37.447Z,35.78
2018-01-26T07:55:05.043Z,24.98
2018-01-26T07:57:32.694Z,38.90
2018-01-26T08:00:01.043Z,35.45
2018-01-26T08:02:28.680Z,31.52
2018-01-26T08:04:56.300Z,27.27
2018-01-26T08:07:23.929Z,34.20
2018-01-26T08:09:51.532Z,32.90
2018-01-26T08:12:19.202Z,24.12
2018-01-26T08:14:46.881Z,20.98
2018-01-26T08:17:14.542Z,22.70
2018-01-26T08:19:42.203Z,17.13
2018-01-26T08:22:09.831Z,19.27
2018-01-26T08:24:37.448Z,20.42
2018-01-26T08:27:05.040Z,18.80
2018-01-26T08:29:33.411Z,16.85
2018-01-26T08:32:01.791Z,15.30
2018-01-26T08:34:30.160Z,16.83
2018-01-26T08:36:57.746Z,17.60
2018-01-26T08:39:25.370Z,19.67
2018-01-26T08:41:52.983Z,15.35
2018-01-26T08:44:20.608Z,22.65
2018-01-26T08:46:48.274Z,17.95
2018-01-26T08:49:16.619Z,23.67
2018-01-26T08:51:44.239Z,21.12
2018-01-26T08:54:11.834Z,21.27
2018-01-26T08:56:39.494Z,25.60
2018-01-26T08:59:07.066Z,32.60
2018-01-26T09:01:34.681Z,26.33
2018-01-26T09:04:02.353Z,24.35
2018-01-26T09:06:29.949Z,24.90
2018-01-26T09:08:57.554Z,25.47
2018-01-26T09:11:25.208Z,22.10
2018-01-26T09:14:12.908Z,29.23
2018-01-26T09:16:40.530Z,21.60
2018-01-26T09:19:08.891Z,18.43
2018-01-26T09:21:36.527Z,23.43
2018-01-26T09:24:04.165Z,16.40
2018-01-26T09:26:31.769Z,16.83
2018-01-26T09:28:59.360Z,14.30
2018-01-26T09:31:26.967Z,26.53
2018-01-26T09:33:54.598Z,16.73
2018-01-26T09:36:22.221Z,14.50
2018-01-26T09:38:49.816Z,20.20
2018-01-26T09:41:17.390Z,14.30
2018-01-26T09:43:45.035Z,16.63
2018-01-26T09:46:12.618Z,16.93
2018-01-26T09:48:40.215Z,17.33
2018-01-26T09:51:07.785Z,15.80
2018-01-26T09:53:35.367Z,16.13
2018-01-26T09:56:02.985Z,15.27
2018-01-26T09:58:31.351Z,15.30
2018-01-26T10:00:59.714Z,14.73
2018-01-26T10:03:27.362Z,16.10
2018-01-26T10:05:55.001Z,15.50
2018-01-26T10:08:23.309Z,17.03
2018-01-26T10:10:50.905Z,13.53
2018-01-26T10:13:18.536Z,16.53
2018-01-26T10:15:46.113Z,13.30
2018-01-26T10:18:14.459Z,16.33
2018-01-26T10:20:42.108Z,14.10
2018-01-26T10:23:09.746Z,12.70
2018-01-26T10:25:37.363Z,10.80
2018-01-26T10:28:04.963Z,10.37
2018-01-26T10:30:32.575Z,12.17
2018-01-26T10:33:00.187Z,11.23
2018-01-26T10:35:27.799Z,13.03
2018-01-26T10:37:55.406Z,13.30
2018-01-26T10:40:22.958Z,12.00
2018-01-26T10:42:50.552Z,13.67
2018-01-26T10:45:18.131Z,13.60
2018-01-26T10:47:45.751Z,15.13
2018-01-26T10:50:13.377Z,14.43
2018-01-26T10:52:41.766Z,14.27
2018-01-26T10:55:09.351Z,14.77
2018-01-26T10:57:36.963Z,17.93
2018-01-26T11:00:04.580Z,16.53
2018-01-26T11:02:32.166Z,15.40
2018-01-26T11:04:59.778Z,13.17
2018-01-26T11:07:27.331Z,13.00
2018-01-26T11:09:54.935Z,11.70
2018-01-26T11:12:22.588Z,11.37
2018-01-26T11:14:50.220Z,12.50
2018-01-26T11:17:17.803Z,12.13
2018-01-26T11:19:45.376Z,10.30
2018-01-26T11:22:12.981Z,9.40
2018-01-26T11:24:41.318Z,10.83
2018-01-26T11:27:08.934Z,9.57
2018-01-26T11:29:36.511Z,9.87
2018-01-26T11:32:04.087Z,9.93
2018-01-26T11:34:31.670Z,10.27
2018-01-26T11:36:59.266Z,9.20
2018-01-26T11:39:27.608Z,8.20
2018-01-26T11:41:55.162Z,10.03
2018-01-26T11:44:22.738Z,11.27
2018-01-26T11:46:50.342Z,8.40
2018-01-26T11:49:17.951Z,10.40
2018-01-26T11:51:45.566Z,10.67
2018-01-26T11:54:13.180Z,12.43
2018-01-26T11:56:41.680Z,10.53
2018-01-26T11:59:11.976Z,9.40
2018-01-26T12:01:39.546Z,7.87
2018-01-26T12:04:07.143Z,9.27
2018-01-26T12:06:34.743Z,9.87
2018-01-26T12:09:02.356Z,7.20
2018-01-26T12:11:29.962Z,8.50
2018-01-26T12:13:57.590Z,7.20
2018-01-26T12:16:25.159Z,7.40
2018-01-26T12:18:52.751Z,9.07
2018-01-26T12:21:20.371Z,8.80
2018-01-26T12:23:47.922Z,7.53
2018-01-26T12:26:15.518Z,7.77
2018-01-26T12:28:43.135Z,11.70
2018-01-26T12:31:10.732Z,8.00
2018-01-26T12:33:38.351Z,10.63
2018-01-26T12:36:06.734Z,9.47
2018-01-26T12:38:35.064Z,8.93
2018-01-26T12:41:02.658Z,9.00
2018-01-26T12:43:30.987Z,9.33
2018-01-26T12:45:58.591Z,7.57
2018-01-26T12:48:26.918Z,8.50
2018-01-26T12:50:54.503Z,12.40
2018-01-26T12:53:22.122Z,7.03
2018-01-26T12:55:49.694Z,8.63
2018-01-26T12:58:17.260Z,8.27
2018-01-26T13:00:45.626Z,9.00
2018-01-26T13:03:13.180Z,9.63
2018-01-26T13:05:40.784Z,7.57
2018-01-26T13:08:08.386Z,7.23
2018-01-26T13:10:36.026Z,5.93
2018-01-26T13:13:04.373Z,8.90
2018-01-26T13:15:31.978Z,9.33
2018-01-26T13:17:59.548Z,8.03
2018-01-26T13:20:27.155Z,7.70
2018-01-26T13:22:54.711Z,8.17
2018-01-26T13:25:22.282Z,8.30
2018-01-26T13:27:49.868Z,7.03
2018-01-26T13:30:18.207Z,9.40
2018-01-26T13:32:45.807Z,12.17
2018-01-26T13:35:14.228Z,11.10
2018-01-26T13:37:41.820Z,10.63
2018-01-26T13:40:09.421Z,5.87
2018-01-26T13:42:36.986Z,6.23
2018-01-26T13:45:04.534Z,11.03
2018-01-26T13:47:32.907Z,9.77
2018-01-26T13:50:01.290Z,8.40
2018-01-26T13:52:29.626Z,9.83
2018-01-26T13:54:57.185Z,8.80
2018-01-26T13:57:24.782Z,11.10
2018-01-26T13:59:52.370Z,8.90
2018-01-26T14:02:19.935Z,8.60
2018-01-26T14:04:47.566Z,9.32
2018-01-26T14:07:15.124Z,10.77
2018-01-26T14:09:43.496Z,12.80
2018-01-26T14:12:11.931Z,12.10
2018-01-26T14:14:39.559Z,9.97
2018-01-26T14:17:07.136Z,11.50
2018-01-26T14:19:34.688Z,17.00
2018-01-26T14:22:02.313Z,14.17
2018-01-26T14:24:29.947Z,15.82
2018-01-26T14:26:57.567Z,14.13
2018-01-26T14:29:25.121Z,14.63
2018-01-26T14:31:52.729Z,15.75
2018-01-26T14:34:20.384Z,17.62
2018-01-26T14:36:48.045Z,16.95
2018-01-26T14:39:15.635Z,15.83
2018-01-26T14:41:43.994Z,17.27
2018-01-26T14:44:11.580Z,17.58
2018-01-26T14:46:39.982Z,20.67
2018-01-26T14:49:07.619Z,18.63
2018-01-26T14:51:56.186Z,18.27
2018-01-26T14:54:23.782Z,19.17
2018-01-26T14:56:51.392Z,19.48
2018-01-26T14:59:18.999Z,19.90
2018-01-26T15:01:48.360Z,19.48
2018-01-26T15:04:16.092Z,19.92
2018-01-26T15:06:43.743Z,19.60
2018-01-26T15:09:11.352Z,18.80
2018-01-26T15:11:39.653Z,16.95
2018-01-26T15:14:07.246Z,18.25
2018-01-26T15:16:34.804Z,17.05
2018-01-26T15:19:02.412Z,16.52
2018-01-26T15:21:30.021Z,16.27
2018-01-26T15:23:57.661Z,16.50
2018-01-26T15:26:25.271Z,16.90
2018-01-26T15:28:53.605Z,15.60
2018-01-26T15:31:21.214Z,16.10
2018-01-26T15:33:49.581Z,14.55
2018-01-26T15:36:18.068Z,13.62
2018-01-26T15:38:46.484Z,14.85
2018-01-26T15:41:14.110Z,14.75
2018-01-26T15:43:42.503Z,14.80
2018-01-26T15:46:10.213Z,14.75
2018-01-26T15:48:37.811Z,15.85
2018-01-26T15:51:06.192Z,17.87
2018-01-26T15:53:33.810Z,15.82
2018-01-26T15:56:01.402Z,15.38
2018-01-26T15:58:29.767Z,19.48
2018-01-26T16:00:57.412Z,18.17
2018-01-26T16:03:25.011Z,15.27
2018-01-26T16:05:52.697Z,18.15
2018-01-26T16:08:20.304Z,18.83
2018-01-26T16:10:47.922Z,16.87
2018-01-26T16:13:15.532Z,17.85
2018-01-26T16:15:54.971Z,15.93
2018-01-26T16:18:22.609Z,13.15
2018-01-26T16:20:51.456Z,13.95
2018-01-26T16:23:19.054Z,13.20
2018-01-26T16:25:46.629Z,9.82
2018-01-26T16:28:14.289Z,10.70
2018-01-26T16:30:41.931Z,10.73
2018-01-26T16:33:10.589Z,13.02
2018-01-26T16:35:38.208Z,14.35
2018-01-26T16:38:05.843Z,12.70
2018-01-26T16:40:33.499Z,12.15
2018-01-26T16:43:01.130Z,11.65
2018-01-26T16:45:28.739Z,13.65
2018-01-26T16:47:56.366Z,13.07
2018-01-26T16:50:23.979Z,17.00
2018-01-26T16:52:52.331Z,20.02
2018-01-26T16:55:19.925Z,13.18
2018-01-26T16:57:48.258Z,14.73
2018-01-26T17:00:15.901Z,10.85
2018-01-26T17:02:43.510Z,10.68
2018-01-26T17:05:11.119Z,10.77
2018-01-26T17:07:39.537Z,14.70
2018-01-26T17:10:07.172Z,12.18
2018-01-26T17:12:34.806Z,12.45
2018-01-26T17:15:02.378Z,11.85
2018-01-26T17:17:29.978Z,11.52
2018-01-26T17:19:57.635Z,12.93
2018-01-26T17:22:25.257Z,11.80
2018-01-26T17:24:52.850Z,12.48
2018-01-26T17:27:20.507Z,16.70
2018-01-26T17:29:48.109Z,18.62
2018-01-26T17:32:16.491Z,13.45
2018-01-26T17:34:44.847Z,11.75
2018-01-26T17:37:12.504Z,15.85
2018-01-26T17:39:40.143Z,15.73
2018-01-26T17:42:07.767Z,19.95
2018-01-26T17:44:35.391Z,22.70
2018-01-26T17:47:02.966Z,28.00
2018-01-26T17:49:31.367Z,17.55
2018-01-26T17:51:58.992Z,15.57
2018-01-26T17:54:26.617Z,14.23
2018-01-26T17:56:54.210Z,14.85
2018-01-26T17:59:21.798Z,17.52
2018-01-26T18:01:49.391Z,17.70
2018-01-26T18:04:16.996Z,24.17
2018-01-26T18:06:44.659Z,15.30
2018-01-26T18:09:12.233Z,15.70
2018-01-26T18:11:40.638Z,13.13
2018-01-26T18:14:08.235Z,18.80
2018-01-26T18:19:30.330Z,22.20
2018-01-26T18:21:58.726Z,20.90
2018-01-26T18:24:26.325Z,19.80
2018-01-26T18:26:53.919Z,20.27
2018-01-26T18:29:22.319Z,19.83
2018-01-26T18:31:49.935Z,21.87
2018-01-26T18:34:17.551Z,24.30
2018-01-26T18:36:45.207Z,24.85
2018-01-26T18:39:12.801Z,29.95
2018-01-26T18:41:41.187Z,34.55
2018-01-26T18:44:08.812Z,33.30
2018-01-26T18:49:30.011Z,37.75
2018-01-26T18:51:58.391Z,34.63
2018-01-26T18:54:27.132Z,33.42
2018-01-26T18:59:48.388Z,32.90
2018-01-26T19:02:22.658Z,37.42
2018-01-26T19:07:55.179Z,42.78
2018-01-26T19:10:22.772Z,110.12
2018-01-26T19:12:50.379Z,82.85
2018-01-26T19:15:29.946Z,41.30
2018-01-26T19:17:57.598Z,62.22
2018-01-26T19:20:25.179Z,51.08
2018-01-26T19:22:52.801Z,62.10
2018-01-26T19:25:20.395Z,55.40
2018-01-26T19:27:47.992Z,44.05
2018-01-26T19:30:15.599Z,47.42
2018-01-26T19:32:43.224Z,50.88
2018-01-26T19:35:10.812Z,38.90
2018-01-26T19:38:02.026Z,42.95
2018-01-26T19:40:29.614Z,43.10
2018-01-26T19:42:57.242Z,43.78
2018-01-26T19:45:24.851Z,43.75
2018-01-26T19:47:52.461Z,41.63
2018-01-26T19:50:26.007Z,48.00
2018-01-26T19:52:55.635Z,44.30
2018-01-26T19:55:23.967Z,44.20
2018-01-26T19:57:51.549Z,37.67
2018-01-26T20:00:22.491Z,39.35
2018-01-26T20:02:50.080Z,48.40
2018-01-26T20:05:35.363Z,44.75
2018-01-26T20:08:20.310Z,40.03
2018-01-26T20:10:48.701Z,32.22
2018-01-26T20:13:21.853Z,33.45
2018-01-26T20:15:49.507Z,29.67
2018-01-26T20:18:17.144Z,31.23
2018-01-26T20:20:44.752Z,37.35
2018-01-26T20:23:12.408Z,35.38
2018-01-26T20:25:40.003Z,29.35
2018-01-26T20:28:07.634Z,29.37
2018-01-26T20:30:35.257Z,22.60
2018-01-26T20:33:02.906Z,34.15
2018-01-26T20:35:30.563Z,33.97
2018-01-26T20:37:58.207Z,27.75
2018-01-26T20:40:25.851Z,26.30
2018-01-26T20:42:53.481Z,34.30
2018-01-26T20:45:21.094Z,35.10
2018-01-26T20:47:48.764Z,41.95
2018-01-26T20:50:16.403Z,27.55
2018-01-26T20:52:44.033Z,26.00
2018-01-26T20:55:11.642Z,27.42
2018-01-26T20:57:40.064Z,28.40
2018-01-26T21:00:07.752Z,27.70
2018-01-26T21:02:36.096Z,25.40
2018-01-26T21:05:03.712Z,34.78
2018-01-26T21:07:31.344Z,27.20
2018-01-26T21:09:58.952Z,39.83
2018-01-26T21:12:26.575Z,35.92
2018-01-26T21:14:54.993Z,31.12
2018-01-26T21:17:23.366Z,30.52
2018-01-26T21:19:51.030Z,38.40
2018-01-26T21:22:18.637Z,20.88
2018-01-26T21:24:46.267Z,27.37
2018-01-26T21:27:13.875Z,25.05
2018-01-26T21:29:42.215Z,27.17
2018-01-26T21:32:09.825Z,26.55
2018-01-26T21:34:38.198Z,36.08
2018-01-26T21:37:06.570Z,32.55
2018-01-26T21:39:34.950Z,23.08
2018-01-26T21:42:03.320Z,27.27
2018-01-26T21:44:31.719Z,30.52
2018-01-26T21:47:00.110Z,37.97
2018-01-26T21:49:27.706Z,23.45
2018-01-26T21:51:55.343Z,26.08
2018-01-26T21:54:22.951Z,26.50
2018-01-26T21:56:50.534Z,26.35
2018-01-26T21:59:18.916Z,23.23
2018-01-26T22:01:46.536Z,25.35
2018-01-26T22:04:14.095Z,25.92
2018-01-26T22:06:47.307Z,24.30
2018-01-26T22:09:14.922Z,23.92
2018-01-26T22:11:42.485Z,25.00
2018-01-26T22:14:10.092Z,30.52
2018-01-26T22:16:38.480Z,30.90
2018-01-26T22:19:06.829Z,27.17
2018-01-26T22:21:34.416Z,25.23
2018-01-26T22:24:02.787Z,30.62
2018-01-26T22:26:31.182Z,25.37
2018-01-26T22:28:58.807Z,31.67
2018-01-26T22:31:26.423Z,24.67
2018-01-26T22:33:54.256Z,31.58
2018-01-26T22:36:22.615Z,26.65
2018-01-26T22:38:50.170Z,37.17
2018-01-26T22:41:17.816Z,30.10
2018-01-26T22:43:45.395Z,31.52
2018-01-26T22:46:12.982Z,32.58
2018-01-26T22:48:41.387Z,30.50
2018-01-26T22:51:08.984Z,32.65
2018-01-26T22:53:36.624Z,29.27
2018-01-26T22:56:04.187Z,28.62
2018-01-26T22:58:31.782Z,32.53
2018-01-26T23:00:59.447Z,32.65
2018-01-26T23:03:27.903Z,38.53
2018-01-26T23:05:55.509Z,40.25
2018-01-26T23:08:23.126Z,39.95
2018-01-26T23:10:50.693Z,30.27
2018-01-26T23:13:18.362Z,25.02
2018-01-26T23:15:45.963Z,29.45
2018-01-26T23:18:13.518Z,25.58
2018-01-26T23:20:41.163Z,28.87
2018-01-26T23:23:09.495Z,27.00
2018-01-26T23:25:37.123Z,31.98
2018-01-26T23:28:04.690Z,26.77
2018-01-26T23:30:32.319Z,26.73
2018-01-26T23:33:00.668Z,28.62
2018-01-26T23:35:28.292Z,31.55
2018-01-26T23:37:55.943Z,26.10
2018-01-26T23:40:25.391Z,28.38
2018-01-26T23:42:53.010Z,26.27
2018-01-26T23:48:25.321Z,22.87
2018-01-26T23:50:52.951Z,26.60
2018-01-26T23:53:20.518Z,28.60
2018-01-26T23:55:48.141Z,27.90
2018-01-26T23:58:15.727Z,26.58
